createdAt,value
2023-03-05T00:01:50.081Z,98.25
2023-03-05T00:04:58.014Z,97.30
2023-03-05T00:08:12.743Z,96.78
2023-03-05T00:11:25.727Z,97.01
2023-03-05T00:14:33.425Z,97.54
2023-03-05T00:17:45.478Z,97.84
2023-03-05T00:20:57.853Z,98.19
2023-03-05T00:24:13.394Z,97.97
2023-03-05T00:27:25.276Z,98.24
2023-03-05T00:30:38.440Z,97.56
2023-03-05T00:33:50.701Z,97.28
2023-03-05T00:37:02.645Z,99.11
2023-03-05T00:40:18.280Z,99.13
2023-03-05T00:43:30.402Z,98.40
2023-03-05T00:46:44.768Z,98.00
2023-03-05T00:49:56.950Z,96.88
2023-03-05T00:53:09.070Z,97.69
2023-03-05T00:56:21.732Z,94.90
2023-03-05T00:59:33.877Z,92.41
2023-03-05T01:02:46.312Z,92.48
2023-03-05T01:05:58.547Z,93.92
2023-03-05T01:09:10.735Z,94.49
2023-03-05T01:12:22.647Z,94.92
2023-03-05T01:15:34.995Z,97.38
2023-03-05T01:18:47.433Z,97.10
2023-03-05T01:21:59.378Z,97.70
2023-03-05T01:28:19.891Z,97.59
2023-03-05T01:31:32.766Z,97.71
2023-03-05T01:34:46.034Z,97.25
2023-03-05T01:37:58.965Z,96.25
2023-03-05T01:41:11.194Z,95.16
2023-03-05T01:44:33.427Z,93.77
2023-03-05T01:47:45.916Z,92.49
2023-03-05T01:50:58.060Z,91.67
2023-03-05T01:54:13.356Z,90.35
2023-03-05T01:57:30.379Z,88.80
2023-03-05T02:00:47.587Z,88.25
2023-03-05T02:03:59.866Z,83.67
2023-03-05T02:07:13.456Z,82.41
2023-03-05T02:10:29.970Z,82.52
2023-03-05T02:13:38.943Z,81.76
2023-03-05T02:16:51.353Z,82.41
2023-03-05T02:20:09.904Z,82.19
2023-03-05T02:23:24.384Z,83.08
2023-03-05T02:26:36.708Z,84.75
2023-03-05T02:29:52.119Z,84.04
2023-03-05T02:33:04.579Z,84.65
2023-03-05T02:36:17.406Z,79.84
2023-03-05T02:39:29.538Z,78.07
2023-03-05T02:42:41.645Z,77.23
2023-03-05T02:45:55.603Z,77.65
2023-03-05T02:49:07.635Z,76.94
2023-03-05T02:52:19.619Z,75.71
2023-03-05T02:55:32.192Z,76.62
2023-03-05T02:58:44.844Z,75.30
2023-03-05T03:01:57.315Z,76.96
2023-03-05T03:05:10.367Z,75.88
2023-03-05T03:08:22.350Z,73.34
2023-03-05T03:11:34.649Z,73.04
2023-03-05T03:14:48.096Z,73.13
2023-03-05T03:18:00.670Z,73.14
2023-03-05T03:21:13.310Z,71.88
2023-03-05T03:24:25.438Z,71.25
2023-03-05T03:27:37.509Z,71.78
2023-03-05T03:30:49.689Z,71.78
2023-03-05T03:34:01.824Z,72.56
2023-03-05T03:37:14.810Z,73.34
2023-03-05T03:40:27.365Z,73.57
2023-03-05T03:43:39.584Z,75.64
2023-03-05T03:46:54.257Z,75.80
2023-03-05T03:50:06.488Z,75.66
2023-03-05T03:53:19.074Z,76.43
2023-03-05T03:56:31.312Z,79.32
2023-03-05T03:59:45.294Z,83.33
2023-03-05T04:02:57.321Z,85.82
2023-03-05T04:06:09.835Z,88.75
2023-03-05T04:09:21.838Z,90.72
2023-03-05T04:12:33.885Z,91.50
2023-03-05T04:15:46.377Z,89.99
2023-03-05T04:18:58.580Z,91.39
2023-03-05T04:22:10.846Z,91.31
2023-03-05T04:25:18.789Z,91.48
2023-03-05T04:28:33.250Z,90.26
2023-03-05T04:31:45.176Z,90.37
2023-03-05T04:34:57.458Z,90.21
2023-03-05T04:38:10.054Z,90.10
2023-03-05T04:41:22.055Z,90.33
2023-03-05T04:44:34.001Z,88.61
2023-03-05T04:47:46.220Z,88.05
2023-03-05T04:50:58.207Z,87.26
2023-03-05T04:54:10.418Z,87.92
2023-03-05T04:57:23.830Z,88.39
2023-03-05T05:00:36.185Z,89.63
2023-03-05T05:03:48.362Z,89.20
2023-03-05T05:07:02.832Z,89.75
2023-03-05T05:13:24.550Z,90.35
2023-03-05T05:16:36.591Z,91.58
2023-03-05T05:19:48.972Z,91.61
2023-03-05T05:23:00.946Z,92.00
2023-03-05T05:26:14.854Z,92.58
2023-03-05T05:29:26.987Z,94.63
2023-03-05T05:32:39.183Z,95.72
2023-03-05T05:35:52.837Z,97.34
2023-03-05T05:39:00.796Z,97.68
2023-03-05T05:42:13.810Z,98.80
2023-03-05T05:45:26.037Z,99.50
2023-03-05T05:48:40.177Z,100.00
2023-03-05T05:51:47.933Z,100.00
2023-03-05T05:55:00.099Z,100.00
2023-03-05T05:58:12.499Z,100.00
2023-03-05T06:01:29.002Z,100.00
2023-03-05T06:04:42.035Z,100.00
2023-03-05T06:07:54.125Z,100.00
2023-03-05T06:11:06.208Z,100.00
2023-03-05T06:14:19.550Z,100.00
2023-03-05T06:17:32.501Z,100.00
2023-03-05T06:20:40.216Z,100.00
2023-03-05T06:23:53.897Z,100.00
2023-03-05T06:27:01.684Z,100.00
2023-03-05T06:30:17.627Z,100.00
2023-03-05T06:33:29.699Z,100.00
2023-03-05T06:36:43.730Z,100.00
2023-03-05T06:39:56.038Z,100.00
2023-03-05T06:43:08.044Z,100.00
2023-03-05T06:46:22.919Z,100.00
2023-03-05T06:49:35.057Z,100.00
2023-03-05T06:52:47.024Z,100.00
2023-03-05T06:55:59.116Z,100.00
2023-03-05T06:59:11.898Z,100.00
2023-03-05T07:02:19.689Z,100.00
2023-03-05T07:11:32.928Z,100.00
2023-03-05T07:14:45.251Z,100.00
2023-03-05T07:17:52.893Z,100.00
2023-03-05T07:21:09.601Z,100.00
2023-03-05T07:24:21.671Z,100.00
2023-03-05T07:27:33.574Z,100.00
2023-03-05T07:42:56.153Z,100.00
2023-03-05T07:46:15.952Z,100.00
2023-03-05T07:49:28.428Z,100.00
2023-03-05T07:52:41.077Z,100.00
2023-03-05T07:55:54.131Z,100.00
2023-03-05T08:28:20.738Z,100.00
2023-03-05T08:31:35.023Z,100.00
2023-03-05T08:34:47.666Z,100.00
2023-03-05T08:42:30.585Z,100.00
2023-03-05T08:51:43.987Z,99.36
2023-03-05T08:57:56.249Z,98.17
2023-03-05T09:01:22.650Z,97.39
2023-03-05T09:13:35.141Z,95.68
2023-03-05T09:19:47.366Z,91.13
2023-03-05T09:22:59.668Z,90.67
2023-03-05T09:32:16.597Z,92.00
2023-03-05T09:35:32.806Z,92.37
2023-03-05T09:45:43.402Z,92.43
2023-03-05T09:50:21.470Z,93.06
2023-03-05T09:53:57.929Z,93.76
2023-03-05T09:57:18.617Z,93.98
2023-03-05T10:00:46.149Z,94.66
2023-03-05T10:04:07.274Z,94.61
2023-03-05T10:07:31.475Z,94.82
2023-03-05T10:10:44.565Z,94.32
2023-03-05T10:13:52.842Z,94.01
2023-03-05T10:20:32.445Z,94.26
2023-03-05T10:24:16.076Z,93.92
2023-03-05T10:30:51.315Z,92.85
2023-03-05T10:34:12.909Z,92.90
2023-03-05T10:38:09.687Z,92.66
2023-03-05T10:41:32.208Z,91.78
2023-03-05T10:47:52.269Z,91.11
2023-03-05T10:51:12.248Z,89.96
2023-03-05T10:54:30.808Z,89.39
2023-03-05T11:01:29.614Z,90.67
2023-03-05T11:04:51.145Z,90.91
2023-03-05T11:22:24.836Z,99.60
2023-03-05T11:26:03.455Z,100.00
2023-03-05T11:29:26.088Z,100.00
2023-03-05T11:38:38.463Z,100.00
2023-03-05T11:41:56.828Z,100.00
2023-03-05T11:45:11.410Z,100.00
2023-03-05T11:48:33.508Z,100.00
2023-03-05T11:52:08.284Z,100.00
2023-03-05T11:55:25.182Z,100.00
2023-03-05T11:58:43.449Z,100.00
2023-03-05T12:01:59.801Z,100.00
2023-03-05T12:14:22.067Z,98.13
2023-03-05T12:17:39.850Z,97.75
2023-03-05T12:20:58.579Z,99.70
2023-03-05T12:35:04.484Z,97.01
2023-03-05T12:44:30.040Z,97.68
2023-03-05T12:47:42.224Z,98.52
2023-03-05T12:51:03.946Z,97.67
2023-03-05T12:54:39.720Z,97.91
2023-03-05T12:57:54.647Z,96.75
2023-03-05T13:01:14.943Z,96.64
2023-03-05T13:04:31.500Z,96.33
2023-03-05T13:07:43.481Z,95.88
2023-03-05T13:11:02.346Z,96.00
2023-03-05T13:14:32.513Z,96.13
2023-03-05T13:17:48.476Z,96.42
2023-03-05T13:21:11.720Z,97.32
2023-03-05T13:24:25.764Z,97.83
2023-03-05T13:27:39.192Z,98.69
2023-03-05T13:30:59.280Z,99.63
2023-03-05T13:34:20.377Z,100.00
2023-03-05T13:37:36.303Z,100.00
2023-03-05T13:40:48.458Z,100.00
2023-03-05T13:44:05.119Z,100.00
2023-03-05T13:47:24.652Z,100.00
2023-03-05T13:50:39.026Z,100.00
2023-03-05T13:53:51.765Z,100.00
2023-03-05T13:57:07.045Z,100.00
2023-03-05T14:00:35.593Z,99.81
2023-03-05T14:03:47.933Z,99.90
2023-03-05T14:07:06.195Z,98.24
2023-03-05T14:10:38.340Z,95.88
2023-03-05T14:13:52.000Z,95.16
2023-03-05T14:17:33.942Z,95.27
2023-03-05T14:20:49.163Z,95.15
2023-03-05T14:24:01.590Z,94.44
2023-03-05T14:27:20.058Z,94.46
2023-03-05T14:30:35.267Z,93.37
2023-03-05T14:33:48.149Z,93.48
2023-03-05T14:37:03.285Z,93.94
2023-03-05T14:40:28.018Z,92.00
2023-03-05T14:43:39.965Z,91.75
2023-03-05T14:46:55.876Z,91.62
2023-03-05T14:50:08.283Z,91.51
2023-03-05T14:53:26.213Z,91.56
2023-03-05T14:56:39.262Z,91.50
2023-03-05T14:59:51.688Z,88.61
2023-03-05T15:03:04.030Z,89.07
2023-03-05T15:06:25.712Z,86.62
2023-03-05T15:09:37.908Z,84.67
2023-03-05T15:12:50.548Z,83.58
2023-03-05T15:16:03.181Z,84.56
2023-03-05T15:19:18.543Z,83.22
2023-03-05T15:22:30.502Z,83.50
2023-03-05T15:25:42.509Z,82.57
2023-03-05T15:28:54.575Z,81.53
2023-03-05T15:32:06.791Z,82.19
2023-03-05T15:35:19.193Z,82.42
2023-03-05T15:38:31.615Z,81.94
2023-03-05T15:41:43.612Z,81.54
2023-03-05T15:44:55.552Z,82.89
2023-03-05T15:48:07.931Z,81.92
2023-03-05T15:51:20.183Z,81.51
2023-03-05T15:54:32.460Z,81.59
2023-03-05T15:57:48.791Z,80.91
2023-03-05T16:01:00.800Z,81.30
2023-03-05T16:04:13.429Z,81.54
2023-03-05T16:07:25.647Z,81.27
2023-03-05T16:10:39.764Z,81.62
2023-03-05T16:13:51.905Z,82.27
2023-03-05T16:17:07.396Z,83.33
2023-03-05T16:20:22.367Z,84.40
2023-03-05T16:23:34.336Z,85.39
2023-03-05T16:26:48.222Z,85.97
2023-03-05T16:30:00.409Z,85.35
2023-03-05T16:33:12.634Z,85.47
2023-03-05T16:36:35.686Z,84.71
2023-03-05T16:39:47.793Z,85.48
2023-03-05T16:42:59.857Z,85.74
2023-03-05T16:46:12.236Z,84.95
2023-03-05T16:49:25.441Z,85.13
2023-03-05T16:52:37.829Z,84.83
2023-03-05T16:55:49.899Z,85.22
2023-03-05T16:59:04.363Z,85.75
2023-03-05T17:02:17.248Z,85.72
2023-03-05T17:05:30.037Z,86.06
2023-03-05T17:08:42.615Z,86.63
2023-03-05T17:11:55.094Z,86.96
2023-03-05T17:15:07.156Z,88.29
2023-03-05T17:18:19.307Z,87.88
2023-03-05T17:21:31.447Z,88.81
2023-03-05T17:24:44.126Z,88.99
2023-03-05T17:27:56.421Z,88.97
2023-03-05T17:31:08.686Z,88.86
2023-03-05T17:34:33.252Z,90.30
2023-03-05T17:37:36.230Z,90.81
2023-03-05T17:40:48.588Z,91.85
2023-03-05T17:44:00.835Z,93.23
2023-03-05T17:47:13.759Z,94.35
2023-03-05T17:50:27.037Z,96.29
2023-03-05T17:53:40.442Z,97.00
2023-03-05T17:56:54.104Z,98.45
2023-03-05T18:00:07.643Z,100.00
2023-03-05T18:03:22.177Z,100.00
2023-03-05T18:06:35.893Z,100.00
2023-03-05T18:09:48.472Z,100.00
2023-03-05T18:13:01.011Z,100.00
2023-03-05T18:16:16.175Z,100.00
2023-03-05T18:19:28.671Z,100.00
2023-03-05T18:22:41.162Z,100.00
2023-03-05T18:25:53.622Z,100.00
2023-03-05T18:29:05.861Z,100.00
2023-03-05T18:32:18.085Z,100.00
2023-03-05T18:35:31.287Z,100.00
2023-03-05T18:38:43.654Z,100.00
2023-03-05T18:41:56.597Z,100.00
2023-03-05T18:45:10.412Z,100.00
2023-03-05T18:48:22.624Z,100.00
2023-03-05T18:51:36.256Z,100.00
2023-03-05T18:54:48.368Z,100.00
2023-03-05T18:58:01.183Z,100.00
2023-03-05T19:01:14.697Z,100.00
2023-03-05T19:04:27.685Z,100.00
2023-03-05T19:07:40.479Z,100.00
2023-03-05T19:10:53.193Z,100.00
2023-03-05T19:14:07.230Z,100.00
2023-03-05T19:17:19.707Z,100.00
2023-03-05T19:20:31.891Z,100.00
2023-03-05T19:23:44.280Z,100.00
2023-03-05T19:26:58.217Z,100.00
2023-03-05T19:30:13.863Z,100.00
2023-03-05T19:33:25.930Z,100.00
2023-03-05T19:36:39.195Z,100.00
2023-03-05T19:39:51.549Z,100.00
2023-03-05T19:43:05.720Z,100.00
2023-03-05T19:46:18.061Z,100.00
2023-03-05T19:49:31.253Z,100.00
2023-03-05T19:52:43.494Z,100.00
2023-03-05T19:55:55.871Z,100.00
2023-03-05T19:59:08.273Z,100.00
2023-03-05T20:02:22.036Z,100.00
2023-03-05T20:05:35.268Z,100.00
2023-03-05T20:08:48.591Z,100.00
2023-03-05T20:12:03.348Z,100.00
2023-03-05T20:15:16.821Z,100.00
2023-03-05T20:18:29.370Z,100.00
2023-03-05T20:21:45.791Z,100.00
2023-03-05T20:24:58.165Z,100.00
2023-03-05T20:28:10.530Z,100.00
2023-03-05T20:31:26.961Z,100.00
2023-03-05T20:34:39.244Z,100.00
2023-03-05T20:37:55.675Z,100.00
2023-03-05T20:41:11.022Z,100.00
2023-03-05T20:44:23.834Z,100.00
2023-03-05T20:47:38.605Z,100.00
2023-03-05T20:50:51.049Z,100.00
2023-03-05T20:54:06.322Z,100.00
2023-03-05T20:57:18.792Z,100.00
2023-03-05T21:00:32.294Z,100.00
2023-03-05T21:03:44.723Z,100.00
2023-03-05T21:06:59.945Z,100.00
2023-03-05T21:10:16.655Z,100.00
2023-03-05T21:13:31.111Z,100.00
2023-03-05T21:16:43.377Z,100.00
2023-03-05T21:19:56.119Z,100.00
2023-03-05T21:23:08.316Z,100.00
2023-03-05T21:26:21.060Z,100.00
2023-03-05T21:29:33.565Z,100.00
2023-03-05T21:32:45.803Z,100.00
2023-03-05T21:35:59.316Z,100.00
2023-03-05T21:39:11.740Z,100.00
2023-03-05T21:42:24.023Z,100.00
2023-03-05T21:45:37.453Z,100.00
2023-03-05T21:48:49.608Z,100.00
2023-03-05T21:52:05.905Z,100.00
2023-03-05T21:55:22.646Z,100.00
2023-03-05T21:58:35.370Z,100.00
2023-03-05T22:01:47.506Z,100.00
2023-03-05T22:04:59.729Z,100.00
2023-03-05T22:08:12.543Z,100.00
2023-03-05T22:11:25.415Z,100.00
2023-03-05T22:14:37.577Z,100.00
2023-03-05T22:17:49.884Z,100.00
2023-03-05T22:21:03.521Z,100.00
2023-03-05T22:24:16.716Z,100.00
2023-03-05T22:27:29.056Z,100.00
2023-03-05T22:30:41.459Z,100.00
2023-03-05T22:33:53.793Z,100.00
2023-03-05T22:37:05.775Z,100.00
2023-03-05T22:40:23.273Z,100.00
2023-03-05T22:43:35.211Z,100.00
2023-03-05T22:46:47.416Z,100.00
2023-03-05T22:49:59.937Z,100.00
2023-03-05T22:53:12.624Z,100.00
2023-03-05T22:56:26.291Z,100.00
2023-03-05T22:59:38.689Z,100.00
2023-03-05T23:02:51.623Z,100.00
2023-03-05T23:06:03.585Z,100.00
2023-03-05T23:09:15.847Z,100.00
2023-03-05T23:12:30.709Z,100.00
2023-03-05T23:15:44.808Z,100.00
2023-03-05T23:18:57.082Z,100.00
2023-03-05T23:22:11.214Z,100.00
2023-03-05T23:25:24.760Z,100.00
2023-03-05T23:28:36.872Z,100.00
2023-03-05T23:31:48.860Z,100.00
2023-03-05T23:35:02.714Z,100.00
2023-03-05T23:38:17.900Z,100.00
2023-03-05T23:41:29.880Z,100.00
2023-03-05T23:44:42.095Z,100.00
2023-03-05T23:47:55.313Z,100.00
2023-03-05T23:51:09.471Z,100.00
2023-03-05T23:54:21.566Z,100.00
2023-03-05T23:57:35.122Z,100.00
